sensor_id;sensor_type;location;lat;lon;timestamp;P1;durP1;ratioP1;P2;durP2;ratioP2
5460;SDS011;2753;49.196;8.286;2022-08-01T00:01:24;8.23;;;2.40;;
5460;SDS011;2753;49.196;8.286;2022-08-01T00:03:50;2.93;;;2.60;;
5460;SDS011;2753;49.196;8.286;2022-08-01T00:06:16;5.03;;;2.93;;
5460;SDS011;2753;49.196;8.286;2022-08-01T00:08:42;5.33;;;3.53;;
5460;SDS011;2753;49.196;8.286;2022-08-01T00:11:07;5.40;;;2.50;;
5460;SDS011;2753;49.196;8.286;2022-08-01T00:13:34;4.40;;;2.47;;
5460;SDS011;2753;49.196;8.286;2022-08-01T00:16:00;2.90;;;2.33;;
5460;SDS011;2753;49.196;8.286;2022-08-01T00:18:26;7.73;;;2.90;;
5460;SDS011;2753;49.196;8.286;2022-08-01T00:20:51;2.70;;;2.60;;
5460;SDS011;2753;49.196;8.286;2022-08-01T00:23:17;2.50;;;2.40;;
5460;SDS011;2753;49.196;8.286;2022-08-01T00:25:43;7.07;;;2.80;;
5460;SDS011;2753;49.196;8.286;2022-08-01T00:28:08;6.50;;;2.10;;
5460;SDS011;2753;49.196;8.286;2022-08-01T00:30:35;4.03;;;2.57;;
5460;SDS011;2753;49.196;8.286;2022-08-01T00:33:01;8.87;;;3.13;;
5460;SDS011;2753;49.196;8.286;2022-08-01T00:35:27;7.30;;;2.73;;
5460;SDS011;2753;49.196;8.286;2022-08-01T00:37:53;2.97;;;2.73;;
5460;SDS011;2753;49.196;8.286;2022-08-01T00:40:19;6.37;;;3.07;;
5460;SDS011;2753;49.196;8.286;2022-08-01T00:42:45;6.60;;;3.20;;
5460;SDS011;2753;49.196;8.286;2022-08-01T00:45:11;3.43;;;2.83;;
5460;SDS011;2753;49.196;8.286;2022-08-01T00:47:37;10.87;;;3.33;;
5460;SDS011;2753;49.196;8.286;2022-08-01T00:50:03;2.20;;;2.10;;
5460;SDS011;2753;49.196;8.286;2022-08-01T00:52:29;2.73;;;2.53;;
5460;SDS011;2753;49.196;8.286;2022-08-01T00:54:55;2.53;;;2.43;;
5460;SDS011;2753;49.196;8.286;2022-08-01T00:57:21;8.13;;;2.70;;
5460;SDS011;2753;49.196;8.286;2022-08-01T00:59:47;5.80;;;2.53;;
5460;SDS011;2753;49.196;8.286;2022-08-01T01:02:13;5.53;;;2.33;;
5460;SDS011;2753;49.196;8.286;2022-08-01T01:04:39;3.30;;;2.27;;
5460;SDS011;2753;49.196;8.286;2022-08-01T01:12:19;3.90;;;2.93;;
5460;SDS011;2753;49.196;8.286;2022-08-01T01:20:34;3.87;;;2.67;;
5460;SDS011;2753;49.196;8.286;2022-08-01T01:29:13;6.80;;;2.87;;
5460;SDS011;2753;49.196;8.286;2022-08-01T01:34:43;4.83;;;2.50;;
5460;SDS011;2753;49.196;8.286;2022-08-01T01:37:11;7.13;;;3.10;;
5460;SDS011;2753;49.196;8.286;2022-08-01T01:39:41;8.90;;;2.77;;
5460;SDS011;2753;49.196;8.286;2022-08-01T01:42:08;2.53;;;2.43;;
5460;SDS011;2753;49.196;8.286;2022-08-01T01:44:36;4.83;;;2.57;;
5460;SDS011;2753;49.196;8.286;2022-08-01T01:47:03;3.00;;;2.80;;
5460;SDS011;2753;49.196;8.286;2022-08-01T01:49:30;4.97;;;2.90;;
5460;SDS011;2753;49.196;8.286;2022-08-01T01:51:57;4.90;;;2.93;;
5460;SDS011;2753;49.196;8.286;2022-08-01T01:54:28;3.00;;;2.80;;
5460;SDS011;2753;49.196;8.286;2022-08-01T01:56:57;4.73;;;2.40;;
5460;SDS011;2753;49.196;8.286;2022-08-01T01:59:25;2.70;;;2.60;;
5460;SDS011;2753;49.196;8.286;2022-08-01T02:01:54;3.23;;;2.93;;
5460;SDS011;2753;49.196;8.286;2022-08-01T02:04:23;4.93;;;2.63;;
5460;SDS011;2753;49.196;8.286;2022-08-01T02:06:50;4.10;;;2.40;;
5460;SDS011;2753;49.196;8.286;2022-08-01T02:09:17;3.03;;;2.80;;
5460;SDS011;2753;49.196;8.286;2022-08-01T02:11:46;2.77;;;2.50;;
5460;SDS011;2753;49.196;8.286;2022-08-01T02:14:14;3.47;;;2.80;;
5460;SDS011;2753;49.196;8.286;2022-08-01T02:16:42;3.23;;;2.43;;
5460;SDS011;2753;49.196;8.286;2022-08-01T02:19:12;4.73;;;2.57;;
5460;SDS011;2753;49.196;8.286;2022-08-01T02:21:52;3.53;;;2.63;;
5460;SDS011;2753;49.196;8.286;2022-08-01T02:24:46;6.10;;;3.00;;
5460;SDS011;2753;49.196;8.286;2022-08-01T02:27:28;3.00;;;2.80;;
5460;SDS011;2753;49.196;8.286;2022-08-01T02:30:26;3.27;;;2.90;;
5460;SDS011;2753;49.196;8.286;2022-08-01T02:33:08;4.20;;;2.60;;
5460;SDS011;2753;49.196;8.286;2022-08-01T02:35:37;3.00;;;2.80;;
5460;SDS011;2753;49.196;8.286;2022-08-01T02:38:06;8.83;;;3.20;;
5460;SDS011;2753;49.196;8.286;2022-08-01T02:40:36;7.37;;;2.97;;
5460;SDS011;2753;49.196;8.286;2022-08-01T02:43:05;3.10;;;2.90;;
5460;SDS011;2753;49.196;8.286;2022-08-01T02:45:34;6.50;;;2.97;;
5460;SDS011;2753;49.196;8.286;2022-08-01T02:48:06;2.87;;;2.67;;
5460;SDS011;2753;49.196;8.286;2022-08-01T02:50:34;2.83;;;2.73;;
5460;SDS011;2753;49.196;8.286;2022-08-01T02:53:02;3.40;;;3.10;;
5460;SDS011;2753;49.196;8.286;2022-08-01T02:55:31;4.83;;;3.77;;
5460;SDS011;2753;49.196;8.286;2022-08-01T02:57:59;7.60;;;3.23;;
5460;SDS011;2753;49.196;8.286;2022-08-01T03:00:28;7.13;;;2.60;;
5460;SDS011;2753;49.196;8.286;2022-08-01T03:02:55;3.90;;;3.00;;
5460;SDS011;2753;49.196;8.286;2022-08-01T03:05:24;6.93;;;2.97;;
5460;SDS011;2753;49.196;8.286;2022-08-01T03:07:51;10.97;;;3.30;;
5460;SDS011;2753;49.196;8.286;2022-08-01T03:10:18;3.00;;;2.70;;
5460;SDS011;2753;49.196;8.286;2022-08-01T03:12:45;4.30;;;3.23;;
5460;SDS011;2753;49.196;8.286;2022-08-01T03:15:14;5.97;;;2.73;;
5460;SDS011;2753;49.196;8.286;2022-08-01T03:17:43;6.63;;;3.03;;
5460;SDS011;2753;49.196;8.286;2022-08-01T03:20:11;6.90;;;2.90;;
5460;SDS011;2753;49.196;8.286;2022-08-01T03:22:39;3.80;;;2.70;;
5460;SDS011;2753;49.196;8.286;2022-08-01T03:25:07;2.47;;;2.27;;
5460;SDS011;2753;49.196;8.286;2022-08-01T03:27:34;2.80;;;2.50;;
5460;SDS011;2753;49.196;8.286;2022-08-01T03:30:02;4.83;;;2.17;;
5460;SDS011;2753;49.196;8.286;2022-08-01T03:32:30;2.27;;;2.17;;
5460;SDS011;2753;49.196;8.286;2022-08-01T03:34:56;2.40;;;2.20;;
5460;SDS011;2753;49.196;8.286;2022-08-01T03:37:27;2.20;;;2.10;;
5460;SDS011;2753;49.196;8.286;2022-08-01T03:41:02;2.70;;;2.50;;
5460;SDS011;2753;49.196;8.286;2022-08-01T03:43:06;2.13;;;2.03;;
5460;SDS011;2753;49.196;8.286;2022-08-01T03:45:37;4.10;;;2.23;;
5460;SDS011;2753;49.196;8.286;2022-08-01T03:48:10;4.00;;;2.40;;
5460;SDS011;2753;49.196;8.286;2022-08-01T03:50:41;3.10;;;2.90;;
5460;SDS011;2753;49.196;8.286;2022-08-01T03:53:08;2.93;;;2.73;;
5460;SDS011;2753;49.196;8.286;2022-08-01T03:55:35;4.33;;;3.93;;
5460;SDS011;2753;49.196;8.286;2022-08-01T03:58:05;2.93;;;2.73;;
5460;SDS011;2753;49.196;8.286;2022-08-01T04:00:31;4.60;;;2.70;;
5460;SDS011;2753;49.196;8.286;2022-08-01T04:02:58;3.03;;;2.83;;
5460;SDS011;2753;49.196;8.286;2022-08-01T04:05:23;4.67;;;2.87;;
5460;SDS011;2753;49.196;8.286;2022-08-01T04:07:50;3.80;;;2.50;;
5460;SDS011;2753;49.196;8.286;2022-08-01T04:10:24;5.03;;;2.30;;
5460;SDS011;2753;49.196;8.286;2022-08-01T04:12:50;3.23;;;2.90;;
5460;SDS011;2753;49.196;8.286;2022-08-01T04:15:16;2.80;;;2.60;;
5460;SDS011;2753;49.196;8.286;2022-08-01T04:17:42;3.83;;;2.33;;
5460;SDS011;2753;49.196;8.286;2022-08-01T04:20:09;5.10;;;2.73;;
5460;SDS011;2753;49.196;8.286;2022-08-01T04:22:36;3.67;;;2.30;;
5460;SDS011;2753;49.196;8.286;2022-08-01T04:25:02;4.33;;;2.73;;
5460;SDS011;2753;49.196;8.286;2022-08-01T04:27:35;5.07;;;2.70;;
5460;SDS011;2753;49.196;8.286;2022-08-01T04:30:04;2.97;;;2.77;;
5460;SDS011;2753;49.196;8.286;2022-08-01T04:32:32;2.33;;;2.10;;
5460;SDS011;2753;49.196;8.286;2022-08-01T04:35:00;8.27;;;2.33;;
5460;SDS011;2753;49.196;8.286;2022-08-01T04:37:31;3.07;;;2.37;;
5460;SDS011;2753;49.196;8.286;2022-08-01T04:39:57;2.60;;;2.50;;
5460;SDS011;2753;49.196;8.286;2022-08-01T04:42:25;2.50;;;2.30;;
5460;SDS011;2753;49.196;8.286;2022-08-01T04:44:52;2.33;;;2.10;;
5460;SDS011;2753;49.196;8.286;2022-08-01T04:47:18;6.43;;;2.47;;
5460;SDS011;2753;49.196;8.286;2022-08-01T04:49:44;4.03;;;2.70;;
5460;SDS011;2753;49.196;8.286;2022-08-01T04:52:12;4.10;;;2.80;;
5460;SDS011;2753;49.196;8.286;2022-08-01T04:54:38;2.77;;;2.47;;
5460;SDS011;2753;49.196;8.286;2022-08-01T04:57:04;8.33;;;3.33;;
5460;SDS011;2753;49.196;8.286;2022-08-01T04:59:30;4.63;;;2.53;;
5460;SDS011;2753;49.196;8.286;2022-08-01T05:02:08;6.60;;;2.70;;
5460;SDS011;2753;49.196;8.286;2022-08-01T05:04:43;2.50;;;2.30;;
5460;SDS011;2753;49.196;8.286;2022-08-01T05:07:10;2.90;;;2.57;;
5460;SDS011;2753;49.196;8.286;2022-08-01T05:09:38;3.63;;;2.30;;
5460;SDS011;2753;49.196;8.286;2022-08-01T05:12:06;4.33;;;2.27;;
5460;SDS011;2753;49.196;8.286;2022-08-01T05:14:33;4.50;;;2.70;;
5460;SDS011;2753;49.196;8.286;2022-08-01T05:16:59;2.67;;;2.47;;
5460;SDS011;2753;49.196;8.286;2022-08-01T05:19:28;3.93;;;2.73;;
5460;SDS011;2753;49.196;8.286;2022-08-01T05:21:55;7.30;;;2.17;;
5460;SDS011;2753;49.196;8.286;2022-08-01T05:24:21;3.00;;;2.57;;
5460;SDS011;2753;49.196;8.286;2022-08-01T05:26:47;4.20;;;2.50;;
5460;SDS011;2753;49.196;8.286;2022-08-01T05:29:14;2.50;;;2.40;;
5460;SDS011;2753;49.196;8.286;2022-08-01T05:31:40;2.67;;;2.47;;
5460;SDS011;2753;49.196;8.286;2022-08-01T05:34:05;4.30;;;2.70;;
5460;SDS011;2753;49.196;8.286;2022-08-01T05:36:31;2.67;;;1.97;;
5460;SDS011;2753;49.196;8.286;2022-08-01T05:38:57;2.00;;;1.90;;
5460;SDS011;2753;49.196;8.286;2022-08-01T05:41:23;4.80;;;2.60;;
5460;SDS011;2753;49.196;8.286;2022-08-01T05:43:49;4.53;;;2.57;;
5460;SDS011;2753;49.196;8.286;2022-08-01T05:46:14;13.93;;;2.73;;
5460;SDS011;2753;49.196;8.286;2022-08-01T05:48:40;6.33;;;2.83;;
5460;SDS011;2753;49.196;8.286;2022-08-01T05:51:06;5.87;;;2.73;;
5460;SDS011;2753;49.196;8.286;2022-08-01T05:53:31;10.20;;;2.87;;
5460;SDS011;2753;49.196;8.286;2022-08-01T05:55:59;9.53;;;3.00;;
5460;SDS011;2753;49.196;8.286;2022-08-01T05:58:26;4.77;;;2.30;;
5460;SDS011;2753;49.196;8.286;2022-08-01T06:00:52;8.43;;;2.50;;
5460;SDS011;2753;49.196;8.286;2022-08-01T06:03:18;2.97;;;2.70;;
5460;SDS011;2753;49.196;8.286;2022-08-01T06:05:43;2.83;;;2.30;;
5460;SDS011;2753;49.196;8.286;2022-08-01T06:08:09;3.53;;;2.40;;
5460;SDS011;2753;49.196;8.286;2022-08-01T06:10:35;4.57;;;2.57;;
5460;SDS011;2753;49.196;8.286;2022-08-01T06:13:00;6.90;;;2.53;;
5460;SDS011;2753;49.196;8.286;2022-08-01T06:15:28;7.13;;;2.50;;
5460;SDS011;2753;49.196;8.286;2022-08-01T06:17:55;3.60;;;2.20;;
5460;SDS011;2753;49.196;8.286;2022-08-01T06:20:20;5.03;;;2.70;;
5460;SDS011;2753;49.196;8.286;2022-08-01T06:22:46;3.40;;;2.30;;
5460;SDS011;2753;49.196;8.286;2022-08-01T06:25:12;4.53;;;2.53;;
5460;SDS011;2753;49.196;8.286;2022-08-01T06:27:37;7.13;;;2.37;;
5460;SDS011;2753;49.196;8.286;2022-08-01T06:30:04;5.37;;;1.87;;
5460;SDS011;2753;49.196;8.286;2022-08-01T06:32:32;6.20;;;1.77;;
5460;SDS011;2753;49.196;8.286;2022-08-01T06:34:58;10.33;;;2.17;;
5460;SDS011;2753;49.196;8.286;2022-08-01T06:37:28;5.60;;;1.53;;
5460;SDS011;2753;49.196;8.286;2022-08-01T06:40:07;3.00;;;1.50;;
5460;SDS011;2753;49.196;8.286;2022-08-01T06:42:34;3.00;;;1.33;;
5460;SDS011;2753;49.196;8.286;2022-08-01T06:45:08;3.27;;;1.27;;
5460;SDS011;2753;49.196;8.286;2022-08-01T06:47:35;4.63;;;1.63;;
5460;SDS011;2753;49.196;8.286;2022-08-01T06:50:02;2.17;;;1.57;;
5460;SDS011;2753;49.196;8.286;2022-08-01T06:52:28;4.20;;;1.60;;
5460;SDS011;2753;49.196;8.286;2022-08-01T06:54:54;4.97;;;1.50;;
5460;SDS011;2753;49.196;8.286;2022-08-01T06:57:20;2.50;;;1.20;;
5460;SDS011;2753;49.196;8.286;2022-08-01T06:59:45;1.10;;;1.10;;
5460;SDS011;2753;49.196;8.286;2022-08-01T07:02:11;2.87;;;1.37;;
5460;SDS011;2753;49.196;8.286;2022-08-01T07:04:37;2.60;;;1.10;;
5460;SDS011;2753;49.196;8.286;2022-08-01T07:07:02;1.53;;;1.10;;
5460;SDS011;2753;49.196;8.286;2022-08-01T07:09:28;2.30;;;1.07;;
5460;SDS011;2753;49.196;8.286;2022-08-01T07:11:54;1.77;;;1.30;;
5460;SDS011;2753;49.196;8.286;2022-08-01T07:14:21;1.70;;;1.03;;
5460;SDS011;2753;49.196;8.286;2022-08-01T07:16:47;4.00;;;1.30;;
5460;SDS011;2753;49.196;8.286;2022-08-01T07:19:13;3.53;;;1.30;;
5460;SDS011;2753;49.196;8.286;2022-08-01T07:21:38;4.23;;;1.30;;
5460;SDS011;2753;49.196;8.286;2022-08-01T07:24:05;1.50;;;1.40;;
5460;SDS011;2753;49.196;8.286;2022-08-01T07:26:32;3.50;;;1.50;;
5460;SDS011;2753;49.196;8.286;2022-08-01T07:28:57;4.90;;;1.30;;
5460;SDS011;2753;49.196;8.286;2022-08-01T07:31:23;3.23;;;1.53;;
5460;SDS011;2753;49.196;8.286;2022-08-01T07:33:49;1.30;;;1.20;;
5460;SDS011;2753;49.196;8.286;2022-08-01T07:36:18;1.20;;;1.10;;
5460;SDS011;2753;49.196;8.286;2022-08-01T07:38:44;1.20;;;1.20;;
5460;SDS011;2753;49.196;8.286;2022-08-01T07:41:11;1.60;;;1.50;;
5460;SDS011;2753;49.196;8.286;2022-08-01T07:43:36;1.77;;;1.07;;
5460;SDS011;2753;49.196;8.286;2022-08-01T07:46:05;4.90;;;1.30;;
5460;SDS011;2753;49.196;8.286;2022-08-01T07:48:31;1.03;;;1.03;;
5460;SDS011;2753;49.196;8.286;2022-08-01T07:50:57;1.73;;;1.20;;
5460;SDS011;2753;49.196;8.286;2022-08-01T07:53:22;1.17;;;1.17;;
5460;SDS011;2753;49.196;8.286;2022-08-01T07:55:48;1.73;;;1.20;;
5460;SDS011;2753;49.196;8.286;2022-08-01T07:58:14;3.80;;;1.30;;
5460;SDS011;2753;49.196;8.286;2022-08-01T08:00:40;1.93;;;1.57;;
5460;SDS011;2753;49.196;8.286;2022-08-01T08:03:06;2.10;;;1.40;;
5460;SDS011;2753;49.196;8.286;2022-08-01T08:05:32;1.10;;;1.00;;
5460;SDS011;2753;49.196;8.286;2022-08-01T08:08:04;0.90;;;0.90;;
5460;SDS011;2753;49.196;8.286;2022-08-01T08:10:30;1.43;;;1.00;;
5460;SDS011;2753;49.196;8.286;2022-08-01T08:12:56;1.27;;;1.00;;
5460;SDS011;2753;49.196;8.286;2022-08-01T08:15:22;1.30;;;1.20;;
5460;SDS011;2753;49.196;8.286;2022-08-01T08:17:48;3.80;;;1.63;;
5460;SDS011;2753;49.196;8.286;2022-08-01T08:20:13;1.13;;;1.03;;
5460;SDS011;2753;49.196;8.286;2022-08-01T08:22:39;2.53;;;1.07;;
5460;SDS011;2753;49.196;8.286;2022-08-01T08:25:05;1.40;;;1.20;;
5460;SDS011;2753;49.196;8.286;2022-08-01T08:27:32;1.30;;;1.20;;
5460;SDS011;2753;49.196;8.286;2022-08-01T08:29:57;1.07;;;1.00;;
5460;SDS011;2753;49.196;8.286;2022-08-01T08:32:23;1.47;;;1.40;;
5460;SDS011;2753;49.196;8.286;2022-08-01T08:34:49;1.27;;;1.20;;
5460;SDS011;2753;49.196;8.286;2022-08-01T08:37:15;1.60;;;1.50;;
5460;SDS011;2753;49.196;8.286;2022-08-01T08:39:42;1.20;;;1.20;;
5460;SDS011;2753;49.196;8.286;2022-08-01T08:42:08;1.87;;;1.70;;
5460;SDS011;2753;49.196;8.286;2022-08-01T08:44:35;2.10;;;1.00;;
5460;SDS011;2753;49.196;8.286;2022-08-01T08:47:01;1.67;;;1.10;;
5460;SDS011;2753;49.196;8.286;2022-08-01T08:49:30;3.20;;;1.50;;
5460;SDS011;2753;49.196;8.286;2022-08-01T08:52:00;1.93;;;1.60;;
5460;SDS011;2753;49.196;8.286;2022-08-01T08:54:27;4.30;;;1.10;;
5460;SDS011;2753;49.196;8.286;2022-08-01T08:56:54;1.23;;;1.13;;
5460;SDS011;2753;49.196;8.286;2022-08-01T08:59:21;1.20;;;1.20;;
5460;SDS011;2753;49.196;8.286;2022-08-01T09:01:51;2.50;;;1.33;;
5460;SDS011;2753;49.196;8.286;2022-08-01T09:04:16;1.00;;;1.00;;
5460;SDS011;2753;49.196;8.286;2022-08-01T09:06:43;1.10;;;1.10;;
5460;SDS011;2753;49.196;8.286;2022-08-01T09:09:09;1.83;;;1.30;;
5460;SDS011;2753;49.196;8.286;2022-08-01T09:11:35;3.23;;;1.70;;
5460;SDS011;2753;49.196;8.286;2022-08-01T09:16:28;1.63;;;1.17;;
5460;SDS011;2753;49.196;8.286;2022-08-01T09:18:54;1.43;;;1.33;;
5460;SDS011;2753;49.196;8.286;2022-08-01T09:21:32;2.23;;;1.50;;
5460;SDS011;2753;49.196;8.286;2022-08-01T09:23:58;2.80;;;1.30;;
5460;SDS011;2753;49.196;8.286;2022-08-01T09:26:29;2.70;;;1.30;;
5460;SDS011;2753;49.196;8.286;2022-08-01T09:28:57;1.40;;;1.30;;
5460;SDS011;2753;49.196;8.286;2022-08-01T09:31:24;3.80;;;1.10;;
5460;SDS011;2753;49.196;8.286;2022-08-01T09:33:56;1.57;;;1.10;;
5460;SDS011;2753;49.196;8.286;2022-08-01T09:36:26;6.43;;;1.40;;
5460;SDS011;2753;49.196;8.286;2022-08-01T09:39:14;1.77;;;1.27;;
5460;SDS011;2753;49.196;8.286;2022-08-01T09:41:40;2.87;;;1.47;;
5460;SDS011;2753;49.196;8.286;2022-08-01T09:44:06;4.57;;;1.97;;
5460;SDS011;2753;49.196;8.286;2022-08-01T09:46:32;3.73;;;1.53;;
5460;SDS011;2753;49.196;8.286;2022-08-01T09:48:58;2.43;;;1.23;;
5460;SDS011;2753;49.196;8.286;2022-08-01T09:51:29;6.50;;;1.30;;
5460;SDS011;2753;49.196;8.286;2022-08-01T09:53:55;7.20;;;1.83;;
5460;SDS011;2753;49.196;8.286;2022-08-01T09:56:21;7.07;;;1.50;;
5460;SDS011;2753;49.196;8.286;2022-08-01T09:58:55;3.40;;;1.40;;
5460;SDS011;2753;49.196;8.286;2022-08-01T10:01:22;4.73;;;1.17;;
5460;SDS011;2753;49.196;8.286;2022-08-01T10:06:38;5.33;;;1.20;;
5460;SDS011;2753;49.196;8.286;2022-08-01T10:09:05;1.10;;;1.10;;
5460;SDS011;2753;49.196;8.286;2022-08-01T10:11:31;2.50;;;1.23;;
5460;SDS011;2753;49.196;8.286;2022-08-01T10:13:58;7.53;;;1.70;;
5460;SDS011;2753;49.196;8.286;2022-08-01T10:16:26;1.87;;;1.30;;
5460;SDS011;2753;49.196;8.286;2022-08-01T10:18:53;2.90;;;1.20;;
5460;SDS011;2753;49.196;8.286;2022-08-01T10:21:19;2.93;;;1.27;;
5460;SDS011;2753;49.196;8.286;2022-08-01T10:23:48;1.60;;;1.20;;
5460;SDS011;2753;49.196;8.286;2022-08-01T10:26:14;1.30;;;1.20;;
5460;SDS011;2753;49.196;8.286;2022-08-01T10:28:41;1.60;;;1.50;;
5460;SDS011;2753;49.196;8.286;2022-08-01T10:31:12;1.50;;;1.27;;
5460;SDS011;2753;49.196;8.286;2022-08-01T10:33:38;1.77;;;1.60;;
5460;SDS011;2753;49.196;8.286;2022-08-01T10:36:06;2.77;;;1.43;;
5460;SDS011;2753;49.196;8.286;2022-08-01T10:38:34;2.00;;;1.43;;
5460;SDS011;2753;49.196;8.286;2022-08-01T10:41:00;1.47;;;1.37;;
5460;SDS011;2753;49.196;8.286;2022-08-01T10:43:28;1.27;;;1.23;;
5460;SDS011;2753;49.196;8.286;2022-08-01T10:45:53;1.73;;;1.47;;
5460;SDS011;2753;49.196;8.286;2022-08-01T10:51:08;1.70;;;1.60;;
5460;SDS011;2753;49.196;8.286;2022-08-01T10:53:33;1.30;;;1.20;;
5460;SDS011;2753;49.196;8.286;2022-08-01T10:56:00;1.83;;;1.73;;
5460;SDS011;2753;49.196;8.286;2022-08-01T11:06:24;3.57;;;1.57;;
5460;SDS011;2753;49.196;8.286;2022-08-01T11:09:21;1.90;;;1.43;;
5460;SDS011;2753;49.196;8.286;2022-08-01T11:14:25;10.13;;;1.43;;
5460;SDS011;2753;49.196;8.286;2022-08-01T11:16:51;1.43;;;1.33;;
5460;SDS011;2753;49.196;8.286;2022-08-01T11:19:17;12.07;;;1.20;;
5460;SDS011;2753;49.196;8.286;2022-08-01T11:27:27;3.43;;;1.20;;
5460;SDS011;2753;49.196;8.286;2022-08-01T11:32:53;1.20;;;1.20;;
5460;SDS011;2753;49.196;8.286;2022-08-01T11:35:23;1.40;;;1.30;;
5460;SDS011;2753;49.196;8.286;2022-08-01T11:37:51;2.03;;;1.20;;
5460;SDS011;2753;49.196;8.286;2022-08-01T11:40:27;1.00;;;1.00;;
5460;SDS011;2753;49.196;8.286;2022-08-01T11:45:47;8.33;;;0.90;;
5460;SDS011;2753;49.196;8.286;2022-08-01T11:48:23;2.40;;;0.90;;
5460;SDS011;2753;49.196;8.286;2022-08-01T11:50:50;3.20;;;1.10;;
5460;SDS011;2753;49.196;8.286;2022-08-01T11:53:17;1.47;;;1.20;;
5460;SDS011;2753;49.196;8.286;2022-08-01T11:55:48;1.10;;;1.00;;
5460;SDS011;2753;49.196;8.286;2022-08-01T11:58:19;1.57;;;1.20;;
5460;SDS011;2753;49.196;8.286;2022-08-01T12:00:50;1.13;;;1.03;;
5460;SDS011;2753;49.196;8.286;2022-08-01T12:03:17;1.13;;;1.07;;
5460;SDS011;2753;49.196;8.286;2022-08-01T12:05:55;1.17;;;1.17;;
5460;SDS011;2753;49.196;8.286;2022-08-01T12:10:51;2.10;;;1.33;;
5460;SDS011;2753;49.196;8.286;2022-08-01T12:13:17;2.23;;;1.00;;
5460;SDS011;2753;49.196;8.286;2022-08-01T12:15:43;1.60;;;1.13;;
5460;SDS011;2753;49.196;8.286;2022-08-01T12:18:10;5.47;;;1.37;;
5460;SDS011;2753;49.196;8.286;2022-08-01T12:20:37;3.20;;;1.00;;
5460;SDS011;2753;49.196;8.286;2022-08-01T12:23:06;1.23;;;0.93;;
5460;SDS011;2753;49.196;8.286;2022-08-01T12:25:34;1.43;;;1.00;;
5460;SDS011;2753;49.196;8.286;2022-08-01T12:28:05;1.00;;;0.90;;
5460;SDS011;2753;49.196;8.286;2022-08-01T12:30:34;1.30;;;1.20;;
5460;SDS011;2753;49.196;8.286;2022-08-01T12:33:01;0.80;;;0.80;;
5460;SDS011;2753;49.196;8.286;2022-08-01T12:35:32;2.00;;;1.57;;
5460;SDS011;2753;49.196;8.286;2022-08-01T12:37:59;1.30;;;1.10;;
5460;SDS011;2753;49.196;8.286;2022-08-01T12:40:28;5.63;;;1.20;;
5460;SDS011;2753;49.196;8.286;2022-08-01T12:42:55;1.37;;;0.90;;
5460;SDS011;2753;49.196;8.286;2022-08-01T12:47:55;2.37;;;1.40;;
5460;SDS011;2753;49.196;8.286;2022-08-01T12:50:25;1.30;;;1.20;;
5460;SDS011;2753;49.196;8.286;2022-08-01T12:52:56;4.67;;;0.80;;
5460;SDS011;2753;49.196;8.286;2022-08-01T12:55:23;0.90;;;0.90;;
5460;SDS011;2753;49.196;8.286;2022-08-01T12:58:02;1.23;;;1.13;;
5460;SDS011;2753;49.196;8.286;2022-08-01T13:00:28;3.03;;;0.80;;
5460;SDS011;2753;49.196;8.286;2022-08-01T13:03:08;8.33;;;1.10;;
5460;SDS011;2753;49.196;8.286;2022-08-01T13:05:41;0.90;;;0.90;;
5460;SDS011;2753;49.196;8.286;2022-08-01T13:08:11;2.73;;;1.00;;
5460;SDS011;2753;49.196;8.286;2022-08-01T13:10:38;0.77;;;0.77;;
5460;SDS011;2753;49.196;8.286;2022-08-01T13:13:04;2.90;;;1.00;;
5460;SDS011;2753;49.196;8.286;2022-08-01T13:15:33;3.27;;;1.00;;
5460;SDS011;2753;49.196;8.286;2022-08-01T13:18:01;2.27;;;1.00;;
5460;SDS011;2753;49.196;8.286;2022-08-01T13:24:00;4.40;;;1.07;;
5460;SDS011;2753;49.196;8.286;2022-08-01T13:29:13;2.30;;;0.87;;
5460;SDS011;2753;49.196;8.286;2022-08-01T13:31:40;2.20;;;0.70;;
5460;SDS011;2753;49.196;8.286;2022-08-01T13:34:06;0.80;;;0.80;;
5460;SDS011;2753;49.196;8.286;2022-08-01T13:36:32;4.87;;;1.10;;
5460;SDS011;2753;49.196;8.286;2022-08-01T13:38:59;1.90;;;1.10;;
5460;SDS011;2753;49.196;8.286;2022-08-01T13:42:00;3.90;;;1.20;;
5460;SDS011;2753;49.196;8.286;2022-08-01T13:44:26;1.30;;;1.20;;
5460;SDS011;2753;49.196;8.286;2022-08-01T13:46:52;1.00;;;1.00;;
5460;SDS011;2753;49.196;8.286;2022-08-01T13:49:18;2.43;;;1.00;;
5460;SDS011;2753;49.196;8.286;2022-08-01T13:51:43;1.53;;;1.00;;
5460;SDS011;2753;49.196;8.286;2022-08-01T13:54:10;2.10;;;1.10;;
5460;SDS011;2753;49.196;8.286;2022-08-01T13:56:36;6.13;;;1.10;;
5460;SDS011;2753;49.196;8.286;2022-08-01T13:59:02;2.00;;;1.30;;
5460;SDS011;2753;49.196;8.286;2022-08-01T14:01:28;2.83;;;1.20;;
5460;SDS011;2753;49.196;8.286;2022-08-01T14:03:54;2.20;;;1.03;;
5460;SDS011;2753;49.196;8.286;2022-08-01T14:06:19;2.93;;;1.20;;
5460;SDS011;2753;49.196;8.286;2022-08-01T14:08:47;2.23;;;1.20;;
5460;SDS011;2753;49.196;8.286;2022-08-01T14:11:13;2.10;;;0.90;;
5460;SDS011;2753;49.196;8.286;2022-08-01T14:13:39;1.10;;;1.00;;
5460;SDS011;2753;49.196;8.286;2022-08-01T14:16:06;1.30;;;1.20;;
5460;SDS011;2753;49.196;8.286;2022-08-01T14:18:32;1.47;;;1.37;;
5460;SDS011;2753;49.196;8.286;2022-08-01T14:20:57;11.77;;;1.30;;
5460;SDS011;2753;49.196;8.286;2022-08-01T14:23:23;0.93;;;0.83;;
5460;SDS011;2753;49.196;8.286;2022-08-01T14:25:49;2.50;;;0.90;;
5460;SDS011;2753;49.196;8.286;2022-08-01T14:28:15;5.00;;;0.90;;
5460;SDS011;2753;49.196;8.286;2022-08-01T14:30:41;5.33;;;1.10;;
5460;SDS011;2753;49.196;8.286;2022-08-01T14:33:07;2.30;;;1.00;;
5460;SDS011;2753;49.196;8.286;2022-08-01T14:35:34;3.63;;;1.10;;
5460;SDS011;2753;49.196;8.286;2022-08-01T14:37:59;2.30;;;1.20;;
5460;SDS011;2753;49.196;8.286;2022-08-01T14:40:25;4.00;;;1.17;;
5460;SDS011;2753;49.196;8.286;2022-08-01T14:42:51;1.00;;;1.00;;
5460;SDS011;2753;49.196;8.286;2022-08-01T14:45:17;2.40;;;0.93;;
5460;SDS011;2753;49.196;8.286;2022-08-01T14:47:42;5.20;;;0.90;;
5460;SDS011;2753;49.196;8.286;2022-08-01T14:50:09;1.40;;;0.97;;
5460;SDS011;2753;49.196;8.286;2022-08-01T14:52:37;2.23;;;1.50;;
5460;SDS011;2753;49.196;8.286;2022-08-01T14:55:04;15.33;;;1.10;;
5460;SDS011;2753;49.196;8.286;2022-08-01T14:57:32;4.97;;;1.10;;
5460;SDS011;2753;49.196;8.286;2022-08-01T14:59:58;4.70;;;1.03;;
5460;SDS011;2753;49.196;8.286;2022-08-01T15:02:23;3.93;;;1.00;;
5460;SDS011;2753;49.196;8.286;2022-08-01T15:04:49;2.50;;;1.13;;
5460;SDS011;2753;49.196;8.286;2022-08-01T15:07:16;2.27;;;0.90;;
5460;SDS011;2753;49.196;8.286;2022-08-01T15:09:42;2.03;;;0.87;;
5460;SDS011;2753;49.196;8.286;2022-08-01T15:12:09;2.70;;;1.03;;
5460;SDS011;2753;49.196;8.286;2022-08-01T15:14:35;1.13;;;1.00;;
5460;SDS011;2753;49.196;8.286;2022-08-01T15:17:13;6.43;;;1.20;;
5460;SDS011;2753;49.196;8.286;2022-08-01T15:19:45;3.90;;;0.93;;
5460;SDS011;2753;49.196;8.286;2022-08-01T15:22:12;1.80;;;1.20;;
5460;SDS011;2753;49.196;8.286;2022-08-01T15:24:38;2.33;;;1.13;;
5460;SDS011;2753;49.196;8.286;2022-08-01T15:27:04;7.97;;;1.20;;
5460;SDS011;2753;49.196;8.286;2022-08-01T15:29:30;1.77;;;1.20;;
5460;SDS011;2753;49.196;8.286;2022-08-01T15:31:58;8.10;;;1.00;;
5460;SDS011;2753;49.196;8.286;2022-08-01T15:34:24;2.00;;;1.43;;
5460;SDS011;2753;49.196;8.286;2022-08-01T15:36:50;1.90;;;0.90;;
5460;SDS011;2753;49.196;8.286;2022-08-01T15:39:16;3.10;;;1.00;;
5460;SDS011;2753;49.196;8.286;2022-08-01T15:41:42;8.23;;;1.13;;
5460;SDS011;2753;49.196;8.286;2022-08-01T15:44:08;1.63;;;1.20;;
5460;SDS011;2753;49.196;8.286;2022-08-01T15:46:33;1.10;;;0.70;;
5460;SDS011;2753;49.196;8.286;2022-08-01T15:49:03;3.60;;;1.00;;
5460;SDS011;2753;49.196;8.286;2022-08-01T15:51:30;1.63;;;0.97;;
5460;SDS011;2753;49.196;8.286;2022-08-01T15:53:56;1.30;;;0.80;;
5460;SDS011;2753;49.196;8.286;2022-08-01T15:56:22;0.90;;;0.70;;
5460;SDS011;2753;49.196;8.286;2022-08-01T15:58:48;0.97;;;0.67;;
5460;SDS011;2753;49.196;8.286;2022-08-01T16:01:15;2.37;;;0.93;;
5460;SDS011;2753;49.196;8.286;2022-08-01T16:03:40;7.43;;;1.50;;
5460;SDS011;2753;49.196;8.286;2022-08-01T16:06:06;6.50;;;1.00;;
5460;SDS011;2753;49.196;8.286;2022-08-01T16:08:32;0.90;;;0.77;;
5460;SDS011;2753;49.196;8.286;2022-08-01T16:11:01;1.10;;;1.00;;
5460;SDS011;2753;49.196;8.286;2022-08-01T16:13:27;6.93;;;1.90;;
5460;SDS011;2753;49.196;8.286;2022-08-01T16:15:53;1.00;;;0.80;;
5460;SDS011;2753;49.196;8.286;2022-08-01T16:18:18;9.70;;;2.50;;
5460;SDS011;2753;49.196;8.286;2022-08-01T16:20:44;1.37;;;0.83;;